Time;durP1;ratioP1;P1;durP2;ratioP2;P2;SDS_P1;SDS_P2;PMS_P1;PMS_P2;Temp;Humidity;BMP_temperature;BMP_pressure;BME280_temperature;BME280_humidity;BME280_pressure;Samples;Min_cycle;Max_cycle;Signal;HPM_P1;HPM_P2
2023/12/17 00:02:24;;;;;;;0.10;0.10;;;;;;;;;;5091665;28;20124;-70
2023/12/17 00:04:49;;;;;;;0.10;0.10;;;;;;;;;;5093329;28;20027;-71
2023/12/17 00:07:15;;;;;;;0.10;0.10;;;;;;;;;;5093341;28;20074;-70
2023/12/17 00:09:40;;;;;;;0.10;0.10;;;;;;;;;;5090621;28;20028;-71
2023/12/17 00:12:06;;;;;;;0.00;0.00;;;;;;;;;;5090621;28;20107;-69
2023/12/17 00:14:32;;;;;;;0.10;0.10;;;;;;;;;;5088194;28;20065;-71
2023/12/17 00:16:57;;;;;;;0.20;0.20;;;;;;;;;;5085670;28;20085;-70
2023/12/17 00:19:23;;;;;;;0.10;0.10;;;;;;;;;;5090727;28;20027;-71
2023/12/17 00:21:49;;;;;;;0.10;0.10;;;;;;;;;;5082367;28;20062;-70
2023/12/17 00:24:15;;;;;;;1.58;1.50;;;;;;;;;;5075293;28;20544;-70
2023/12/17 00:26:40;;;;;;;0.00;0.00;;;;;;;;;;5093488;28;20469;-69
2023/12/17 00:29:06;;;;;;;0.10;0.10;;;;;;;;;;5093731;28;20375;-69
2023/12/17 00:31:31;;;;;;;0.10;0.10;;;;;;;;;;5092821;28;20124;-70
2023/12/17 00:34:00;;;;;;;0.10;0.10;;;;;;;;;;5093626;28;20114;-69
2023/12/17 00:36:25;;;;;;;0.10;0.10;;;;;;;;;;5093360;28;20036;-69
2023/12/17 00:38:51;;;;;;;0.10;0.10;;;;;;;;;;5093835;28;20069;-70
2023/12/17 00:41:16;;;;;;;0.10;0.10;;;;;;;;;;5075812;28;20047;-69
2023/12/17 00:43:43;;;;;;;0.10;0.10;;;;;;;;;;5093367;28;20025;-69
2023/12/17 00:46:08;;;;;;;0.10;0.10;;;;;;;;;;5092716;28;20036;-70
2023/12/17 00:48:35;;;;;;;0.20;0.20;;;;;;;;;;5084161;28;20078;-72
2023/12/17 00:51:01;;;;;;;0.00;0.00;;;;;;;;;;5073122;28;20029;-70
2023/12/17 00:53:27;;;;;;;0.10;0.10;;;;;;;;;;5073156;28;20036;-70
2023/12/17 00:55:52;;;;;;;0.80;0.80;;;;;;;;;;5073166;28;20467;-71
2023/12/17 00:58:18;;;;;;;0.10;0.10;;;;;;;;;;5072239;28;20025;-70
2023/12/17 01:00:43;;;;;;;1.02;1.02;;;;;;;;;;5073697;28;20030;-71
2023/12/17 01:03:09;;;;;;;1.95;1.85;;;;;;;;;;5092594;28;20392;-70
2023/12/17 01:05:36;;;;;;;0.10;0.10;;;;;;;;;;5087331;28;20055;-70
2023/12/17 01:08:01;;;;;;;0.10;0.10;;;;;;;;;;5094200;28;20031;-71
2023/12/17 01:10:27;;;;;;;0.10;0.10;;;;;;;;;;5079164;28;20032;-71
2023/12/17 01:12:53;;;;;;;0.20;0.20;;;;;;;;;;5097312;28;20089;-70
2023/12/17 01:15:19;;;;;;;0.03;0.03;;;;;;;;;;5097211;28;20028;-70
2023/12/17 01:17:44;;;;;;;0.10;0.10;;;;;;;;;;5097136;28;20076;-71
2023/12/17 01:20:10;;;;;;;0.10;0.10;;;;;;;;;;5096901;28;20058;-72
2023/12/17 01:22:36;;;;;;;0.10;0.10;;;;;;;;;;5079114;28;20020;-70
2023/12/17 01:25:01;;;;;;;0.10;0.10;;;;;;;;;;5097149;28;20039;-70
2023/12/17 01:27:27;;;;;;;0.10;0.10;;;;;;;;;;5097029;28;20044;-70
2023/12/17 01:29:52;;;;;;;0.70;0.70;;;;;;;;;;5096949;28;20024;-70
2023/12/17 01:32:18;;;;;;;1.30;1.30;;;;;;;;;;5096725;28;20032;-70
2023/12/17 01:34:44;;;;;;;0.10;0.10;;;;;;;;;;5078495;28;20062;-70
2023/12/17 01:37:10;;;;;;;0.90;0.90;;;;;;;;;;5096695;28;20041;-70
2023/12/17 01:39:35;;;;;;;1.05;1.02;;;;;;;;;;5096933;28;20027;-70
2023/12/17 01:42:01;;;;;;;0.10;0.10;;;;;;;;;;5096696;28;20028;-69
2023/12/17 01:44:26;;;;;;;0.10;0.10;;;;;;;;;;5078558;28;20028;-69
2023/12/17 01:46:52;;;;;;;0.00;0.00;;;;;;;;;;5096448;28;20042;-70
2023/12/17 01:49:18;;;;;;;0.10;0.10;;;;;;;;;;5096498;28;20024;-70
2023/12/17 01:51:44;;;;;;;0.10;0.10;;;;;;;;;;5096403;28;20502;-70
2023/12/17 01:54:10;;;;;;;0.10;0.10;;;;;;;;;;5096360;28;20024;-70
2023/12/17 01:56:36;;;;;;;0.35;0.35;;;;;;;;;;5096389;28;20108;-69
2023/12/17 01:59:02;;;;;;;0.10;0.10;;;;;;;;;;5096358;28;20042;-71
2023/12/17 02:01:27;;;;;;;0.10;0.10;;;;;;;;;;5096307;28;20024;-70
2023/12/17 02:03:53;;;;;;;0.10;0.10;;;;;;;;;;5096040;28;20028;-70
2023/12/17 02:06:18;;;;;;;0.10;0.10;;;;;;;;;;5095422;28;20039;-70
2023/12/17 02:08:44;;;;;;;0.10;0.10;;;;;;;;;;5073775;28;20482;-70
2023/12/17 02:11:10;;;;;;;0.10;0.10;;;;;;;;;;5074032;28;20118;-71
2023/12/17 02:13:35;;;;;;;0.28;0.28;;;;;;;;;;5075574;28;20383;-71
2023/12/17 02:16:01;;;;;;;0.10;0.10;;;;;;;;;;5075925;28;20090;-71
2023/12/17 02:18:26;;;;;;;0.85;0.85;;;;;;;;;;5075663;28;20473;-70
2023/12/17 02:20:53;;;;;;;0.32;0.32;;;;;;;;;;5075795;28;20016;-70
2023/12/17 02:23:19;;;;;;;0.80;0.80;;;;;;;;;;5075709;28;20056;-71
2023/12/17 02:25:44;;;;;;;0.20;0.20;;;;;;;;;;5057797;28;20052;-70
2023/12/17 02:28:10;;;;;;;0.10;0.10;;;;;;;;;;5075455;28;20114;-71
2023/12/17 02:30:36;;;;;;;0.10;0.10;;;;;;;;;;5075615;28;20488;-71
2023/12/17 02:33:01;;;;;;;0.00;0.00;;;;;;;;;;5075541;28;20048;-70
2023/12/17 02:35:27;;;;;;;0.77;0.77;;;;;;;;;;5075657;28;20032;-71
2023/12/17 02:37:52;;;;;;;0.10;0.10;;;;;;;;;;5075482;28;20023;-71
2023/12/17 02:40:18;;;;;;;0.20;0.20;;;;;;;;;;5075452;28;20067;-71
2023/12/17 02:42:44;;;;;;;0.10;0.10;;;;;;;;;;5075514;28;20087;-71
2023/12/17 02:45:10;;;;;;;0.10;0.10;;;;;;;;;;5075284;28;20056;-71
2023/12/17 02:47:35;;;;;;;0.10;0.10;;;;;;;;;;5075068;28;20029;-71
2023/12/17 02:50:01;;;;;;;0.20;0.20;;;;;;;;;;5075218;28;20131;-71
2023/12/17 02:52:27;;;;;;;0.10;0.10;;;;;;;;;;5075221;28;20029;-71
2023/12/17 02:54:52;;;;;;;0.40;0.40;;;;;;;;;;5057224;28;20028;-72
2023/12/17 02:57:18;;;;;;;0.10;0.10;;;;;;;;;;5075298;28;20353;-71
2023/12/17 02:59:44;;;;;;;0.10;0.10;;;;;;;;;;5075042;28;20033;-70
2023/12/17 03:02:09;;;;;;;0.10;0.10;;;;;;;;;;5056972;28;20471;-70
2023/12/17 03:04:35;;;;;;;0.10;0.10;;;;;;;;;;5074838;28;20032;-70
2023/12/17 03:07:00;;;;;;;0.10;0.10;;;;;;;;;;5074749;28;20357;-70
2023/12/17 03:09:26;;;;;;;0.10;0.10;;;;;;;;;;5074675;28;20028;-70
2023/12/17 03:11:52;;;;;;;0.22;0.22;;;;;;;;;;5056816;28;20028;-70
2023/12/17 03:14:17;;;;;;;0.20;0.20;;;;;;;;;;5074767;28;20031;-71
2023/12/17 03:16:43;;;;;;;0.08;0.08;;;;;;;;;;5074402;28;20479;-70
2023/12/17 03:19:09;;;;;;;0.10;0.10;;;;;;;;;;5074471;28;20028;-70
2023/12/17 03:21:34;;;;;;;3.80;3.60;;;;;;;;;;5074465;28;20086;-69
2023/12/17 03:24:00;;;;;;;0.30;0.30;;;;;;;;;;5074535;28;20031;-70
2023/12/17 03:26:25;;;;;;;0.63;0.50;;;;;;;;;;5074543;28;20107;-71
2023/12/17 03:28:51;;;;;;;0.10;0.10;;;;;;;;;;5074139;28;20128;-71
2023/12/17 03:31:17;;;;;;;0.00;0.00;;;;;;;;;;5073541;28;20021;-70
2023/12/17 03:33:43;;;;;;;0.00;0.00;;;;;;;;;;5074297;28;20038;-70
2023/12/17 03:36:13;;;;;;;0.10;0.10;;;;;;;;;;5074138;28;20031;-70
2023/12/17 03:38:38;;;;;;;0.10;0.10;;;;;;;;;;5074159;28;20559;-70
2023/12/17 03:41:04;;;;;;;0.10;0.10;;;;;;;;;;5074158;28;20107;-71
2023/12/17 03:43:29;;;;;;;0.10;0.10;;;;;;;;;;5074356;28;20383;-71
2023/12/17 03:45:55;;;;;;;0.10;0.10;;;;;;;;;;5073866;28;20528;-71
2023/12/17 03:48:20;;;;;;;0.10;0.10;;;;;;;;;;5073894;28;20044;-71
2023/12/17 03:50:46;;;;;;;0.22;0.22;;;;;;;;;;5073929;28;20036;-70
2023/12/17 03:53:12;;;;;;;0.30;0.30;;;;;;;;;;5073926;28;20101;-71
2023/12/17 03:55:37;;;;;;;0.10;0.10;;;;;;;;;;5073890;28;20020;-70
2023/12/17 03:58:03;;;;;;;0.10;0.10;;;;;;;;;;5073904;28;20031;-70
2023/12/17 04:00:29;;;;;;;0.30;0.30;;;;;;;;;;5074051;28;20033;-70
2023/12/17 04:02:54;;;;;;;0.10;0.10;;;;;;;;;;5070392;28;20367;-69
2023/12/17 04:05:20;;;;;;;0.10;0.10;;;;;;;;;;5052093;28;20016;-70
2023/12/17 04:07:46;;;;;;;0.10;0.10;;;;;;;;;;5070018;28;20060;-70
2023/12/17 04:10:11;;;;;;;0.10;0.10;;;;;;;;;;5071302;28;20020;-70
2023/12/17 04:12:37;;;;;;;0.00;0.00;;;;;;;;;;5070825;28;20036;-70
2023/12/17 04:15:02;;;;;;;0.10;0.10;;;;;;;;;;5070131;28;20488;-71
2023/12/17 04:17:29;;;;;;;0.10;0.10;;;;;;;;;;5069778;28;20028;-70
2023/12/17 04:19:55;;;;;;;0.10;0.10;;;;;;;;;;5069821;28;20021;-70
2023/12/17 04:22:20;;;;;;;0.10;0.10;;;;;;;;;;5069723;28;20032;-70
2023/12/17 04:24:46;;;;;;;0.00;0.00;;;;;;;;;;5069703;28;20025;-70
2023/12/17 04:27:11;;;;;;;0.10;0.10;;;;;;;;;;5048383;28;20053;-70
2023/12/17 04:29:37;;;;;;;0.10;0.10;;;;;;;;;;5049828;28;20028;-70
2023/12/17 04:32:03;;;;;;;0.10;0.10;;;;;;;;;;5049639;28;20044;-70
2023/12/17 04:34:28;;;;;;;0.20;0.20;;;;;;;;;;5049709;28;20044;-70
2023/12/17 04:36:55;;;;;;;0.10;0.10;;;;;;;;;;5050038;28;20060;-70
2023/12/17 04:39:21;;;;;;;0.10;0.10;;;;;;;;;;5049839;28;20498;-70
2023/12/17 04:41:46;;;;;;;0.10;0.10;;;;;;;;;;5049404;28;20047;-70
2023/12/17 04:44:12;;;;;;;0.10;0.10;;;;;;;;;;5052660;28;20064;-70
2023/12/17 04:46:38;;;;;;;0.10;0.10;;;;;;;;;;5053379;28;20120;-70
2023/12/17 04:49:03;;;;;;;0.10;0.10;;;;;;;;;;5053575;28;20499;-70
2023/12/17 04:51:29;;;;;;;0.43;0.43;;;;;;;;;;5053886;28;20092;-70
2023/12/17 04:53:54;;;;;;;0.17;0.17;;;;;;;;;;5053409;28;20482;-70
2023/12/17 04:56:21;;;;;;;0.10;0.10;;;;;;;;;;5053453;28;20021;-69
2023/12/17 04:58:46;;;;;;;0.10;0.10;;;;;;;;;;5053113;28;20250;-70
2023/12/17 05:01:12;;;;;;;0.10;0.10;;;;;;;;;;5053324;28;20036;-68
2023/12/17 05:03:38;;;;;;;0.00;0.00;;;;;;;;;;5053393;28;20021;-70
2023/12/17 05:06:04;;;;;;;0.10;0.10;;;;;;;;;;5053453;28;20029;-71
2023/12/17 05:08:30;;;;;;;0.10;0.10;;;;;;;;;;5053330;28;20017;-70
2023/12/17 05:10:55;;;;;;;0.10;0.10;;;;;;;;;;5053782;28;20040;-70
2023/12/17 05:13:21;;;;;;;0.10;0.10;;;;;;;;;;5051906;28;20028;-70
2023/12/17 05:15:47;;;;;;;0.10;0.10;;;;;;;;;;5053453;28;20416;-70
2023/12/17 05:18:12;;;;;;;0.10;0.10;;;;;;;;;;5053380;28;20025;-70
2023/12/17 05:20:38;;;;;;;0.20;0.20;;;;;;;;;;5053051;28;20025;-70
2023/12/17 05:23:03;;;;;;;1.98;1.25;;;;;;;;;;5053182;28;20067;-71
2023/12/17 05:25:29;;;;;;;0.43;0.40;;;;;;;;;;5053021;28;20029;-71
2023/12/17 05:27:55;;;;;;;0.08;0.08;;;;;;;;;;5063964;28;20059;-71
2023/12/17 05:30:22;;;;;;;0.03;0.03;;;;;;;;;;5055196;28;20151;-70
2023/12/17 05:32:48;;;;;;;0.10;0.10;;;;;;;;;;5072765;28;20137;-70
2023/12/17 05:35:14;;;;;;;0.03;0.03;;;;;;;;;;5072793;28;20568;-70
2023/12/17 05:37:39;;;;;;;0.85;0.85;;;;;;;;;;5072804;28;20471;-70
2023/12/17 05:40:06;;;;;;;0.10;0.10;;;;;;;;;;5073051;28;20063;-70
2023/12/17 05:42:32;;;;;;;0.10;0.10;;;;;;;;;;5072430;28;20035;-70
2023/12/17 05:44:57;;;;;;;0.10;0.10;;;;;;;;;;5072541;28;20379;-71
2023/12/17 05:47:23;;;;;;;0.10;0.10;;;;;;;;;;5072493;28;20025;-71
2023/12/17 05:49:49;;;;;;;0.00;0.00;;;;;;;;;;5072640;28;20097;-71
2023/12/17 05:52:15;;;;;;;0.10;0.10;;;;;;;;;;5072687;28;20487;-71
2023/12/17 05:54:43;;;;;;;0.05;0.05;;;;;;;;;;5071872;28;20025;-70
2023/12/17 05:57:08;;;;;;;0.10;0.10;;;;;;;;;;5084370;28;20024;-71
2023/12/17 05:59:34;;;;;;;0.10;0.10;;;;;;;;;;5074520;28;20039;-71
2023/12/17 06:01:59;;;;;;;0.00;0.00;;;;;;;;;;5090640;28;20409;-70
2023/12/17 06:04:25;;;;;;;0.10;0.10;;;;;;;;;;5074118;28;20398;-71
2023/12/17 06:06:51;;;;;;;0.10;0.10;;;;;;;;;;5092401;28;20099;-69
2023/12/17 06:09:17;;;;;;;0.10;0.10;;;;;;;;;;5095214;28;20039;-71
2023/12/17 06:11:42;;;;;;;0.10;0.10;;;;;;;;;;5095281;28;20537;-70
2023/12/17 06:14:08;;;;;;;0.10;0.10;;;;;;;;;;5093674;28;20034;-69
2023/12/17 06:16:33;;;;;;;0.10;0.10;;;;;;;;;;5092255;28;20482;-70
2023/12/17 06:18:59;;;;;;;0.10;0.10;;;;;;;;;;5092911;28;20064;-70
2023/12/17 06:21:26;;;;;;;0.00;0.00;;;;;;;;;;5092228;28;20491;-70
2023/12/17 06:23:52;;;;;;;0.00;0.00;;;;;;;;;;5091931;28;20417;-70
2023/12/17 06:26:19;;;;;;;0.10;0.10;;;;;;;;;;5073749;28;20052;-70
2023/12/17 06:28:45;;;;;;;0.05;0.05;;;;;;;;;;5087366;28;20106;-70
2023/12/17 06:31:10;;;;;;;0.10;0.10;;;;;;;;;;5053671;28;20028;-69
2023/12/17 06:33:36;;;;;;;0.00;0.00;;;;;;;;;;5071819;28;20046;-69
2023/12/17 06:36:01;;;;;;;0.10;0.10;;;;;;;;;;5071390;28;20032;-69
2023/12/17 06:38:27;;;;;;;0.10;0.10;;;;;;;;;;5071108;28;20031;-69
2023/12/17 06:40:54;;;;;;;0.10;0.10;;;;;;;;;;5071493;28;20052;-70
2023/12/17 06:43:19;;;;;;;0.10;0.10;;;;;;;;;;5071930;28;20044;-70
2023/12/17 06:45:45;;;;;;;0.10;0.10;;;;;;;;;;5071331;28;20020;-71
2023/12/17 06:48:11;;;;;;;0.10;0.10;;;;;;;;;;5071512;28;20029;-70
2023/12/17 06:50:36;;;;;;;0.10;0.10;;;;;;;;;;5071114;28;20027;-70
2023/12/17 06:53:02;;;;;;;0.00;0.00;;;;;;;;;;5071112;28;20468;-69
2023/12/17 06:55:27;;;;;;;0.00;0.00;;;;;;;;;;5071104;28;20024;-69
2023/12/17 06:57:53;;;;;;;0.10;0.10;;;;;;;;;;5071220;28;20032;-70
2023/12/17 07:00:19;;;;;;;0.10;0.10;;;;;;;;;;5071019;28;20091;-70
2023/12/17 07:02:44;;;;;;;0.10;0.10;;;;;;;;;;5069223;28;20372;-71
2023/12/17 07:05:11;;;;;;;0.10;0.10;;;;;;;;;;5069289;28;20484;-69
2023/12/17 07:07:36;;;;;;;0.00;0.00;;;;;;;;;;5070848;28;20055;-70
2023/12/17 07:10:02;;;;;;;0.05;0.05;;;;;;;;;;5070868;28;20532;-70
2023/12/17 07:12:28;;;;;;;0.10;0.10;;;;;;;;;;5070867;28;20177;-70
2023/12/17 07:14:54;;;;;;;0.10;0.10;;;;;;;;;;5070915;28;20100;-70
2023/12/17 07:17:20;;;;;;;0.10;0.10;;;;;;;;;;5071087;28;20471;-70
2023/12/17 07:19:45;;;;;;;0.10;0.10;;;;;;;;;;5070965;28;20039;-70
2023/12/17 07:22:11;;;;;;;0.10;0.10;;;;;;;;;;5070768;28;20434;-69
2023/12/17 07:24:36;;;;;;;0.10;0.10;;;;;;;;;;5068224;28;20422;-70
2023/12/17 07:27:02;;;;;;;0.10;0.10;;;;;;;;;;5074369;28;20391;-72
2023/12/17 07:29:28;;;;;;;0.10;0.10;;;;;;;;;;5091352;28;20039;-70
2023/12/17 07:31:53;;;;;;;0.10;0.10;;;;;;;;;;5090533;28;20044;-72
2023/12/17 07:34:19;;;;;;;0.10;0.10;;;;;;;;;;5090999;28;20081;-70
2023/12/17 07:36:45;;;;;;;0.10;0.10;;;;;;;;;;5072990;28;20361;-70
2023/12/17 07:39:11;;;;;;;0.10;0.10;;;;;;;;;;5070447;28;20089;-70
2023/12/17 07:41:36;;;;;;;0.10;0.10;;;;;;;;;;5070855;28;20082;-70
2023/12/17 07:44:02;;;;;;;0.10;0.10;;;;;;;;;;5070304;28;20483;-70
2023/12/17 07:46:27;;;;;;;0.10;0.10;;;;;;;;;;5052160;28;20107;-69
2023/12/17 07:48:56;;;;;;;0.10;0.10;;;;;;;;;;5083896;28;20024;-70
2023/12/17 07:51:22;;;;;;;0.10;0.10;;;;;;;;;;5090604;28;20052;-70
2023/12/17 07:53:47;;;;;;;0.10;0.10;;;;;;;;;;5089808;28;20071;-70
2023/12/17 07:56:15;;;;;;;0.10;0.10;;;;;;;;;;5071440;28;20062;-72
2023/12/17 07:58:40;;;;;;;0.20;0.20;;;;;;;;;;5077527;28;20020;-71
2023/12/17 08:01:06;;;;;;;0.10;0.10;;;;;;;;;;5089665;28;20050;-71
2023/12/17 08:03:31;;;;;;;0.10;0.10;;;;;;;;;;5083322;28;20062;-72
2023/12/17 08:05:57;;;;;;;0.10;0.10;;;;;;;;;;5086315;28;20024;-70
2023/12/17 08:08:23;;;;;;;0.10;0.10;;;;;;;;;;5082176;28;20056;-71
2023/12/17 08:10:49;;;;;;;0.10;0.10;;;;;;;;;;5070745;28;20097;-71
2023/12/17 08:13:15;;;;;;;0.20;0.20;;;;;;;;;;5064647;28;20043;-72
2023/12/17 08:15:41;;;;;;;0.10;0.10;;;;;;;;;;5082902;28;20024;-74
2023/12/17 08:18:06;;;;;;;0.10;0.10;;;;;;;;;;5074792;28;20031;-75
2023/12/17 08:20:32;;;;;;;0.10;0.10;;;;;;;;;;5072383;28;20024;-74
2023/12/17 08:22:57;;;;;;;0.20;0.20;;;;;;;;;;5089438;28;20494;-75
2023/12/17 08:25:23;;;;;;;0.10;0.10;;;;;;;;;;5071946;28;20032;-74
2023/12/17 08:27:48;;;;;;;0.10;0.10;;;;;;;;;;5066847;28;20059;-74
2023/12/17 08:30:14;;;;;;;0.20;0.20;;;;;;;;;;5061759;28;20021;-78
2023/12/17 08:32:40;;;;;;;0.55;0.55;;;;;;;;;;5056607;28;20045;-74
2023/12/17 08:35:05;;;;;;;0.35;0.35;;;;;;;;;;5051841;28;20082;-74
2023/12/17 08:37:31;;;;;;;0.10;0.10;;;;;;;;;;5062179;28;20046;-75
2023/12/17 08:39:57;;;;;;;0.22;0.22;;;;;;;;;;5060804;28;20086;-74
2023/12/17 08:42:23;;;;;;;0.20;0.20;;;;;;;;;;5066443;28;20023;-77
2023/12/17 08:44:49;;;;;;;0.20;0.20;;;;;;;;;;5067676;28;20032;-75
2023/12/17 08:47:15;;;;;;;0.10;0.10;;;;;;;;;;5066922;28;20089;-74
2023/12/17 08:49:41;;;;;;;0.10;0.10;;;;;;;;;;5066476;28;20032;-74
2023/12/17 08:52:06;;;;;;;0.20;0.20;;;;;;;;;;5067478;28;20024;-74
2023/12/17 08:54:32;;;;;;;0.10;0.10;;;;;;;;;;5067698;28;20162;-74
2023/12/17 08:56:57;;;;;;;0.10;0.10;;;;;;;;;;5067707;28;20077;-74
2023/12/17 08:59:23;;;;;;;0.20;0.20;;;;;;;;;;5067644;28;20415;-74
2023/12/17 09:01:49;;;;;;;0.10;0.10;;;;;;;;;;5066193;28;20024;-73
2023/12/17 09:04:15;;;;;;;0.20;0.20;;;;;;;;;;5066340;28;20012;-74
2023/12/17 09:06:42;;;;;;;0.10;0.10;;;;;;;;;;5066329;28;20021;-74
2023/12/17 09:09:07;;;;;;;0.10;0.10;;;;;;;;;;5068005;28;20055;-74
2023/12/17 09:11:33;;;;;;;0.10;0.10;;;;;;;;;;5065623;28;20016;-74
2023/12/17 09:13:59;;;;;;;0.10;0.10;;;;;;;;;;5069224;28;20134;-74
2023/12/17 09:16:25;;;;;;;0.10;0.10;;;;;;;;;;5065870;28;20017;-74
2023/12/17 09:18:50;;;;;;;0.20;0.20;;;;;;;;;;5069675;28;20359;-74
2023/12/17 09:21:16;;;;;;;0.70;0.52;;;;;;;;;;5069256;28;20070;-74
2023/12/17 09:23:41;;;;;;;0.73;0.73;;;;;;;;;;5069093;28;20408;-74
2023/12/17 09:26:07;;;;;;;0.73;0.73;;;;;;;;;;5068826;28;20028;-73
2023/12/17 09:28:34;;;;;;;0.17;0.17;;;;;;;;;;5085456;28;20491;-74
2023/12/17 09:31:01;;;;;;;0.20;0.20;;;;;;;;;;5092784;28;20035;-73
2023/12/17 09:33:27;;;;;;;0.10;0.10;;;;;;;;;;5092356;28;20391;-74
2023/12/17 09:35:52;;;;;;;0.10;0.10;;;;;;;;;;5092586;28;20024;-73
2023/12/17 09:38:18;;;;;;;0.10;0.10;;;;;;;;;;5092716;28;20385;-74
2023/12/17 09:40:46;;;;;;;0.20;0.20;;;;;;;;;;5092432;28;20150;-73
2023/12/17 09:43:12;;;;;;;1.73;0.75;;;;;;;;;;5082901;28;20047;-75
2023/12/17 09:45:38;;;;;;;0.10;0.10;;;;;;;;;;5081859;28;20068;-76
2023/12/17 09:48:04;;;;;;;0.10;0.10;;;;;;;;;;5087199;28;20032;-75
2023/12/17 09:50:30;;;;;;;0.90;0.90;;;;;;;;;;5092360;28;20024;-74
2023/12/17 09:52:55;;;;;;;0.10;0.10;;;;;;;;;;5086880;28;20035;-74
2023/12/17 09:55:21;;;;;;;0.10;0.10;;;;;;;;;;5087647;28;20020;-75
2023/12/17 09:57:47;;;;;;;0.20;0.20;;;;;;;;;;5074353;28;20127;-74
2023/12/17 10:00:14;;;;;;;0.10;0.10;;;;;;;;;;5092483;28;20428;-74
2023/12/17 10:02:40;;;;;;;0.35;0.35;;;;;;;;;;5092237;28;20024;-75
2023/12/17 10:05:06;;;;;;;2.92;2.65;;;;;;;;;;5086040;28;20020;-74
2023/12/17 10:07:33;;;;;;;0.60;0.60;;;;;;;;;;5082339;28;20039;-74
2023/12/17 10:09:59;;;;;;;0.20;0.20;;;;;;;;;;5088523;28;20038;-75
2023/12/17 10:12:26;;;;;;;0.20;0.20;;;;;;;;;;5092492;28;20479;-75
2023/12/17 10:14:52;;;;;;;0.10;0.10;;;;;;;;;;5076108;28;20078;-73
2023/12/17 10:17:18;;;;;;;0.10;0.10;;;;;;;;;;5087180;28;20020;-74
2023/12/17 10:19:48;;;;;;;0.10;0.10;;;;;;;;;;5091170;28;20489;-74
2023/12/17 10:22:14;;;;;;;0.10;0.10;;;;;;;;;;5091393;28;20028;-75
2023/12/17 10:24:41;;;;;;;0.43;0.43;;;;;;;;;;5091647;28;20040;-73
2023/12/17 10:27:16;;;;;;;0.15;0.15;;;;;;;;;;5091675;28;20052;-74
2023/12/17 10:29:44;;;;;;;0.40;0.40;;;;;;;;;;5078388;28;20380;-73
2023/12/17 10:32:12;;;;;;;0.17;0.17;;;;;;;;;;5071729;28;20374;-74
2023/12/17 10:34:39;;;;;;;0.20;0.20;;;;;;;;;;5069158;28;20522;-73
2023/12/17 10:37:05;;;;;;;0.73;0.73;;;;;;;;;;5069142;28;20021;-76
2023/12/17 10:39:31;;;;;;;0.20;0.20;;;;;;;;;;5050630;28;20412;-74
2023/12/17 10:41:58;;;;;;;0.43;0.43;;;;;;;;;;5050920;28;20025;-73
2023/12/17 10:44:24;;;;;;;3.47;3.33;;;;;;;;;;5069195;28;20043;-74
2023/12/17 10:46:51;;;;;;;0.15;0.15;;;;;;;;;;5068918;28;20471;-73
2023/12/17 10:49:18;;;;;;;0.17;0.17;;;;;;;;;;5067437;28;20064;-73
2023/12/17 10:51:43;;;;;;;0.17;0.17;;;;;;;;;;5067998;28;20077;-73
2023/12/17 10:54:11;;;;;;;0.20;0.20;;;;;;;;;;5068954;28;20044;-73
2023/12/17 10:56:57;;;;;;;0.60;0.60;;;;;;;;;;5069424;28;20225;-73
2023/12/17 10:59:24;;;;;;;0.60;0.60;;;;;;;;;;5070010;28;20040;-74
2023/12/17 11:01:52;;;;;;;0.20;0.20;;;;;;;;;;5070415;28;20461;-73
2023/12/17 11:04:18;;;;;;;0.10;0.10;;;;;;;;;;5068832;28;20032;-73
2023/12/17 11:06:44;;;;;;;0.20;0.20;;;;;;;;;;5068639;28;20421;-73
2023/12/17 11:09:10;;;;;;;0.20;0.20;;;;;;;;;;5068453;28;20103;-74
2023/12/17 11:11:36;;;;;;;0.47;0.47;;;;;;;;;;5052236;28;20039;-73
2023/12/17 11:14:02;;;;;;;0.20;0.20;;;;;;;;;;5069586;28;20017;-74
2023/12/17 11:16:29;;;;;;;0.20;0.20;;;;;;;;;;5069202;28;20028;-74
2023/12/17 11:18:54;;;;;;;0.20;0.20;;;;;;;;;;5077445;28;20016;-73
2023/12/17 11:21:22;;;;;;;0.20;0.20;;;;;;;;;;5091615;28;20375;-73
2023/12/17 11:23:48;;;;;;;0.22;0.22;;;;;;;;;;5090909;28;20036;-73
2023/12/17 11:26:17;;;;;;;0.20;0.20;;;;;;;;;;5090817;28;20103;-74
2023/12/17 11:28:44;;;;;;;0.20;0.20;;;;;;;;;;5090337;28;20107;-74
2023/12/17 11:31:11;;;;;;;0.30;0.30;;;;;;;;;;5090825;28;20406;-73
2023/12/17 11:33:38;;;;;;;0.63;0.63;;;;;;;;;;5072776;28;20039;-73
2023/12/17 11:36:04;;;;;;;0.20;0.20;;;;;;;;;;5072743;28;20379;-73
2023/12/17 11:38:31;;;;;;;0.30;0.30;;;;;;;;;;5090530;28;20020;-74
2023/12/17 11:40:57;;;;;;;0.20;0.20;;;;;;;;;;5055132;28;20029;-73
2023/12/17 11:43:25;;;;;;;0.38;0.22;;;;;;;;;;5070767;28;20024;-73
2023/12/17 11:45:51;;;;;;;0.20;0.20;;;;;;;;;;5058493;28;20363;-74
2023/12/17 11:48:21;;;;;;;0.50;0.50;;;;;;;;;;5035916;28;20016;-73
2023/12/17 11:50:46;;;;;;;0.20;0.20;;;;;;;;;;5065956;28;20435;-73
2023/12/17 11:53:13;;;;;;;2.40;2.08;;;;;;;;;;5085651;28;20064;-73
2023/12/17 11:55:42;;;;;;;0.20;0.20;;;;;;;;;;5090650;28;20437;-73
2023/12/17 11:58:07;;;;;;;0.65;0.50;;;;;;;;;;5091119;28;20024;-73
2023/12/17 12:00:33;;;;;;;0.20;0.20;;;;;;;;;;5086460;28;20116;-74
2023/12/17 12:02:58;;;;;;;0.20;0.20;;;;;;;;;;5080868;28;20033;-74
2023/12/17 12:05:24;;;;;;;0.20;0.20;;;;;;;;;;5089362;28;20023;-75
2023/12/17 12:07:54;;;;;;;0.20;0.20;;;;;;;;;;5067937;28;20024;-74
2023/12/17 12:10:21;;;;;;;0.28;0.28;;;;;;;;;;5052735;28;20041;-74
2023/12/17 12:12:59;;;;;;;0.22;0.22;;;;;;;;;;5068728;28;20590;-75
2023/12/17 12:15:24;;;;;;;0.38;0.30;;;;;;;;;;5084520;28;20024;-75
2023/12/17 12:17:50;;;;;;;0.25;0.25;;;;;;;;;;5075749;28;20025;-74
2023/12/17 12:20:16;;;;;;;0.20;0.20;;;;;;;;;;5071941;28;20132;-73
2023/12/17 12:22:42;;;;;;;0.20;0.20;;;;;;;;;;5089275;28;20027;-74
2023/12/17 12:25:08;;;;;;;0.20;0.20;;;;;;;;;;5089021;28;20463;-74
2023/12/17 12:27:34;;;;;;;0.30;0.30;;;;;;;;;;5089633;28;20047;-76
2023/12/17 12:30:00;;;;;;;0.30;0.30;;;;;;;;;;5086231;28;20486;-75
2023/12/17 12:32:32;;;;;;;1.70;0.95;;;;;;;;;;5088673;28;20032;-75
2023/12/17 12:34:58;;;;;;;0.20;0.20;;;;;;;;;;5089316;28;20028;-74
2023/12/17 12:37:31;;;;;;;1.00;0.77;;;;;;;;;;5089440;28;20037;-73
2023/12/17 12:39:56;;;;;;;0.20;0.20;;;;;;;;;;5089889;28;20502;-74
2023/12/17 12:42:22;;;;;;;0.30;0.30;;;;;;;;;;5081256;28;20016;-75
2023/12/17 12:44:48;;;;;;;0.20;0.20;;;;;;;;;;5077558;28;20032;-74
2023/12/17 12:47:14;;;;;;;0.20;0.20;;;;;;;;;;5069550;28;20503;-75
2023/12/17 12:49:40;;;;;;;1.65;0.60;;;;;;;;;;5081366;28;20062;-74
2023/12/17 12:52:06;;;;;;;0.20;0.20;;;;;;;;;;5085372;28;20036;-77
2023/12/17 12:54:33;;;;;;;0.20;0.20;;;;;;;;;;5071042;28;20029;-74
2023/12/17 12:56:58;;;;;;;0.20;0.20;;;;;;;;;;5070628;28;20023;-75
2023/12/17 12:59:24;;;;;;;0.20;0.20;;;;;;;;;;5073660;28;20081;-74
2023/12/17 13:01:50;;;;;;;0.30;0.30;;;;;;;;;;5080788;28;20372;-74
2023/12/17 13:04:15;;;;;;;0.20;0.20;;;;;;;;;;5090331;28;20028;-74
2023/12/17 13:06:41;;;;;;;0.50;0.50;;;;;;;;;;5092542;28;20043;-75
2023/12/17 13:09:09;;;;;;;0.40;0.40;;;;;;;;;;5075391;28;20028;-74
2023/12/17 13:11:34;;;;;;;0.28;0.28;;;;;;;;;;5092862;28;20022;-74
2023/12/17 13:14:00;;;;;;;2.10;1.80;;;;;;;;;;5081261;28;20040;-74
2023/12/17 13:16:26;;;;;;;0.20;0.20;;;;;;;;;;5072977;28;20047;-74
2023/12/17 13:18:51;;;;;;;0.22;0.22;;;;;;;;;;5079796;28;20020;-74
2023/12/17 13:21:17;;;;;;;0.30;0.30;;;;;;;;;;5089141;28;20032;-73
2023/12/17 13:23:43;;;;;;;0.35;0.35;;;;;;;;;;5084422;28;20034;-75
2023/12/17 13:26:08;;;;;;;0.30;0.30;;;;;;;;;;5088728;28;20463;-74
2023/12/17 13:28:35;;;;;;;0.30;0.30;;;;;;;;;;5090168;28;20043;-76
2023/12/17 13:31:03;;;;;;;0.50;0.50;;;;;;;;;;5072820;28;20286;-75
2023/12/17 13:33:29;;;;;;;0.40;0.20;;;;;;;;;;5090675;28;20471;-74
2023/12/17 13:35:55;;;;;;;0.20;0.20;;;;;;;;;;5092372;28;20028;-73
2023/12/17 13:38:20;;;;;;;0.20;0.20;;;;;;;;;;5092416;28;20020;-74
2023/12/17 13:40:49;;;;;;;1.13;0.80;;;;;;;;;;5090449;28;20540;-74
2023/12/17 13:43:15;;;;;;;1.80;1.70;;;;;;;;;;5091081;28;20574;-75
2023/12/17 13:45:41;;;;;;;0.20;0.20;;;;;;;;;;5087381;28;20032;-75
2023/12/17 13:48:06;;;;;;;0.40;0.30;;;;;;;;;;5086997;28;20459;-75
2023/12/17 13:50:32;;;;;;;0.35;0.25;;;;;;;;;;5086093;28;20073;-74
2023/12/17 13:52:58;;;;;;;0.47;0.40;;;;;;;;;;5094481;28;20067;-73
2023/12/17 13:55:24;;;;;;;0.43;0.40;;;;;;;;;;5093358;28;20063;-73
2023/12/17 13:57:50;;;;;;;0.43;0.43;;;;;;;;;;5091910;28;20027;-74
2023/12/17 14:00:16;;;;;;;0.20;0.20;;;;;;;;;;5092272;28;20032;-75
2023/12/17 14:02:42;;;;;;;0.30;0.30;;;;;;;;;;5092277;28;20034;-75
2023/12/17 14:05:08;;;;;;;0.30;0.30;;;;;;;;;;5091799;28;20020;-73
2023/12/17 14:07:34;;;;;;;0.20;0.20;;;;;;;;;;5090094;28;20520;-74
2023/12/17 14:10:00;;;;;;;1.98;1.88;;;;;;;;;;5092248;28;20111;-74
2023/12/17 14:12:26;;;;;;;1.92;1.50;;;;;;;;;;5091346;28;20181;-74
2023/12/17 14:14:52;;;;;;;0.38;0.38;;;;;;;;;;5091774;28;20074;-75
2023/12/17 14:17:18;;;;;;;0.55;0.40;;;;;;;;;;5092036;28;20024;-76
2023/12/17 14:19:45;;;;;;;0.30;0.30;;;;;;;;;;5091451;28;20026;-75
2023/12/17 14:22:11;;;;;;;0.30;0.30;;;;;;;;;;5091364;28;20032;-74
2023/12/17 14:24:36;;;;;;;1.30;0.63;;;;;;;;;;5090386;28;20506;-74
2023/12/17 14:27:02;;;;;;;0.35;0.35;;;;;;;;;;5089957;28;20094;-74
2023/12/17 14:29:28;;;;;;;0.30;0.30;;;;;;;;;;5090110;28;20361;-73
2023/12/17 14:32:00;;;;;;;0.20;0.20;;;;;;;;;;5086741;28;20466;-74
2023/12/17 14:34:26;;;;;;;0.30;0.30;;;;;;;;;;5089660;28;20027;-74
2023/12/17 14:36:51;;;;;;;0.90;0.65;;;;;;;;;;5090452;28;20458;-74